Time;durP1;ratioP1;P1;durP2;ratioP2;P2;SDS_P1;SDS_P2;PMS_P1;PMS_P2;Temp;Humidity;BMP_temperature;BMP_pressure;BME280_temperature;BME280_humidity;BME280_pressure;Samples;Min_cycle;Max_cycle;Signal;HPM_P1;HPM_P2
2023/03/19 00:01:01;;;;;;;;;;;;;;;17.13;100.00;98398.44;5039353;28;19917;-39
2023/03/19 00:03:26;;;;;;;;;;;;;;;17.61;100.00;98399.50;5038403;28;20476;-39
2023/03/19 00:05:52;;;;;;;;;;;;;;;17.37;100.00;98400.28;5038549;28;19924;-39
2023/03/19 00:08:17;;;;;;;;;;;;;;;18.06;100.00;98392.81;5039075;28;19916;-39
2023/03/19 00:10:42;;;;;;;;;;;;;;;16.95;100.00;98409.28;5038926;28;20366;-39
2023/03/19 00:13:09;;;;;;;;;;;;;;;17.67;100.00;98386.88;5038177;28;20869;-39
2023/03/19 00:15:34;;;;;;;;;;;;;;;17.21;100.00;98412.69;5038568;28;19921;-39
2023/03/19 00:17:59;;;;;;;;;;;;;;;17.26;100.00;98424.44;5038671;28;19991;-39
2023/03/19 00:20:25;;;;;;;;;;;;;;;17.38;100.00;98412.38;5038764;28;20550;-39
2023/03/19 00:22:50;;;;;;;;;;;;;;;17.31;100.00;98395.50;5037239;28;19924;-39
2023/03/19 00:25:15;;;;;;;;;;;;;;;17.74;100.00;98387.28;5038419;28;19920;-39
2023/03/19 00:27:41;;;;;;;;;;;;;;;17.71;100.00;98375.31;5037496;28;20459;-39
2023/03/19 00:30:07;;;;;;;;;;;;;;;17.97;100.00;98363.06;5038441;28;19927;-39
2023/03/19 00:32:34;;;;;;;;;;;;;;;17.86;100.00;98375.16;5038090;28;20007;-39
2023/03/19 00:34:59;;;;;;;;;;;;;;;17.06;100.00;98389.41;5037646;28;19921;-39
2023/03/19 00:37:24;;;;;;;;;;;;;;;16.54;100.00;98436.22;5038520;28;19917;-39
2023/03/19 00:39:49;;;;;;;;;;;;;;;16.01;100.00;98436.13;5038566;28;20924;-39
2023/03/19 00:42:15;;;;;;;;;;;;;;;16.36;100.00;98433.88;5038698;28;20344;-40
2023/03/19 00:44:40;;;;;;;;;;;;;;;16.30;100.00;98445.50;5036132;28;20368;-40
2023/03/19 00:47:06;;;;;;;;;;;;;;;16.26;100.00;98438.84;5038233;28;19924;-40
2023/03/19 00:49:31;;;;;;;;;;;;;;;16.23;100.00;98444.22;5038557;28;19920;-40
2023/03/19 00:51:56;;;;;;;;;;;;;;;16.66;100.00;98440.63;5037278;28;19917;-40
2023/03/19 00:54:21;;;;;;;;;;;;;;;15.84;100.00;98445.00;5037618;28;19920;-40
2023/03/19 00:56:46;;;;;;;;;;;;;;;15.66;100.00;98449.53;5037766;28;19947;-40
2023/03/19 00:59:12;;;;;;;;;;;;;;;15.73;100.00;98456.03;5038004;28;19917;-40
2023/03/19 01:01:38;;;;;;;;;;;;;;;15.68;100.00;98461.47;5036500;28;20016;-40
2023/03/19 01:04:03;;;;;;;;;;;;;;;16.56;100.00;98439.53;5030122;28;20043;-41
2023/03/19 01:06:28;;;;;;;;;;;;;;;16.87;100.00;98430.59;5023509;28;20026;-40
2023/03/19 01:08:53;;;;;;;;;;;;;;;16.78;100.00;98421.59;5022056;28;19924;-40
2023/03/19 01:11:19;;;;;;;;;;;;;;;15.88;100.00;98457.69;5022234;28;19921;-40
2023/03/19 01:13:45;;;;;;;;;;;;;;;16.72;100.00;98422.84;5022405;28;19999;-40
2023/03/19 01:16:10;;;;;;;;;;;;;;;17.24;100.00;98399.47;5022390;28;20416;-40
2023/03/19 01:18:36;;;;;;;;;;;;;;;17.21;100.00;98384.06;5021985;28;19928;-40
2023/03/19 01:21:02;;;;;;;;;;;;;;;17.24;100.00;98386.44;5022179;28;20276;-40
2023/03/19 01:23:28;;;;;;;;;;;;;;;17.74;100.00;98384.66;5021526;28;20514;-40
2023/03/19 01:25:53;;;;;;;;;;;;;;;16.82;100.00;98398.84;5021016;28;19928;-40
2023/03/19 01:28:18;;;;;;;;;;;;;;;17.22;100.00;98385.72;5022320;28;19925;-40
2023/03/19 01:30:44;;;;;;;;;;;;;;;16.29;100.00;98433.44;5021238;28;19916;-40
2023/03/19 01:33:09;;;;;;;;;;;;;;;16.66;100.00;98410.25;5020729;28;19921;-40
2023/03/19 01:35:34;;;;;;;;;;;;;;;15.59;100.00;98443.06;5019426;28;20008;-40
2023/03/19 01:38:00;;;;;;;;;;;;;;;15.32;100.00;98455.94;5019295;28;20431;-40
2023/03/19 01:40:25;;;;;;;;;;;;;;;15.96;100.00;98456.38;5021849;28;20298;-40
2023/03/19 01:43:25;;;;;;;;;;;;;;;15.83;100.00;98454.56;5020330;28;20050;-40
2023/03/19 01:46:23;;;;;;;;;;;;;;;15.10;100.00;98472.78;4959839;28;19926;-40
2023/03/19 01:48:49;;;;;;;;;;;;;;;15.33;100.00;98474.03;4987301;28;19921;-40
2023/03/19 01:51:15;;;;;;;;;;;;;;;15.58;100.00;98478.56;5021554;28;20399;-40
2023/03/19 01:53:40;;;;;;;;;;;;;;;15.35;100.00;98477.34;5021285;28;19921;-40
2023/03/19 01:56:08;;;;;;;;;;;;;;;16.42;100.00;98443.91;5018273;28;19921;-40
2023/03/19 01:58:33;;;;;;;;;;;;;;;15.65;100.00;98453.06;5022695;28;19971;-40
2023/03/19 02:00:58;;;;;;;;;;;;;;;16.39;100.00;98440.66;5021625;28;20012;-40
2023/03/19 02:03:24;;;;;;;;;;;;;;;16.21;100.00;98445.25;5017693;28;19927;-40
2023/03/19 02:05:50;;;;;;;;;;;;;;;16.20;100.00;98439.25;5019830;28;19951;-40
2023/03/19 02:08:15;;;;;;;;;;;;;;;16.72;100.00;98409.84;5017322;28;19921;-40
2023/03/19 02:10:41;;;;;;;;;;;;;;;15.87;100.00;98440.47;5018293;28;19935;-40
2023/03/19 02:13:07;;;;;;;;;;;;;;;16.07;100.00;98453.94;5017719;28;20002;-40
2023/03/19 02:15:32;;;;;;;;;;;;;;;16.03;100.00;98461.09;5017986;28;19936;-40
2023/03/19 02:17:57;;;;;;;;;;;;;;;16.60;100.00;98447.03;5019187;28;20031;-40
2023/03/19 02:20:30;;;;;;;;;;;;;;;17.12;100.00;98416.75;5019377;28;20363;-40
2023/03/19 02:23:01;;;;;;;;;;;;;;;17.32;100.00;98397.16;5020709;28;19940;-40
2023/03/19 02:25:27;;;;;;;;;;;;;;;17.98;100.00;98371.69;5025197;28;20345;-40
2023/03/19 02:27:52;;;;;;;;;;;;;;;17.93;100.00;98364.22;5025781;28;19955;-40
2023/03/19 02:30:18;;;;;;;;;;;;;;;16.79;100.00;98401.66;5023239;28;19931;-40
2023/03/19 02:32:43;;;;;;;;;;;;;;;17.42;100.00;98379.97;5021770;28;19921;-40
2023/03/19 02:35:08;;;;;;;;;;;;;;;17.44;100.00;98377.25;5023660;28;20280;-40
2023/03/19 02:37:34;;;;;;;;;;;;;;;18.17;100.00;98361.59;5022150;28;20344;-40
2023/03/19 02:40:19;;;;;;;;;;;;;;;17.63;100.00;98363.75;5022436;28;19921;-40
2023/03/19 02:42:44;;;;;;;;;;;;;;;16.36;100.00;98402.69;5021680;28;19995;-40
2023/03/19 02:45:10;;;;;;;;;;;;;;;17.16;100.00;98401.78;5019298;28;19917;-41
2023/03/19 02:47:35;;;;;;;;;;;;;;;17.67;100.00;98378.25;5023346;28;20452;-40
2023/03/19 02:50:00;;;;;;;;;;;;;;;17.18;100.00;98395.53;5022152;28;19920;-40
2023/03/19 02:52:26;;;;;;;;;;;;;;;17.59;100.00;98377.97;5022740;28;19920;-40
2023/03/19 02:54:51;;;;;;;;;;;;;;;17.70;100.00;98383.25;5023059;28;20863;-40
2023/03/19 02:57:17;;;;;;;;;;;;;;;16.63;100.00;98413.06;5023934;28;20023;-40
2023/03/19 02:59:42;;;;;;;;;;;;;;;16.75;100.00;98418.38;5023298;28;19921;-40
2023/03/19 03:02:08;;;;;;;;;;;;;;;16.48;100.00;98427.88;5022382;28;19947;-40
2023/03/19 03:04:35;;;;;;;;;;;;;;;16.50;100.00;98439.00;5022220;28;19927;-40
2023/03/19 03:07:01;;;;;;;;;;;;;;;16.93;100.00;98411.97;5022530;28;19925;-40
2023/03/19 03:09:26;;;;;;;;;;;;;;;16.30;100.00;98449.88;5021518;28;19948;-40
2023/03/19 03:11:52;;;;;;;;;;;;;;;15.82;100.00;98457.22;5023819;28;19940;-40
2023/03/19 03:14:17;;;;;;;;;;;;;;;16.00;100.00;98463.03;5020351;28;19917;-40
2023/03/19 03:16:42;;;;;;;;;;;;;;;16.19;100.00;98462.72;5022608;28;20135;-40
2023/03/19 03:19:08;;;;;;;;;;;;;;;16.44;100.00;98451.56;5021704;28;20324;-40
2023/03/19 03:21:33;;;;;;;;;;;;;;;16.61;100.00;98442.69;5021495;28;19921;-40
2023/03/19 03:23:58;;;;;;;;;;;;;;;17.51;100.00;98394.94;5022208;28;20058;-41
2023/03/19 03:26:24;;;;;;;;;;;;;;;17.11;100.00;98418.53;5022881;28;19924;-40
2023/03/19 03:28:49;;;;;;;;;;;;;;;17.08;100.00;98426.56;5022753;28;19970;-40
2023/03/19 03:31:14;;;;;;;;;;;;;;;17.53;100.00;98411.28;5020780;28;19991;-41
2023/03/19 03:33:39;;;;;;;;;;;;;;;17.46;100.00;98406.63;5020504;28;20154;-41
2023/03/19 03:36:05;;;;;;;;;;;;;;;17.53;100.00;98416.50;5021835;28;19923;-40
2023/03/19 03:38:31;;;;;;;;;;;;;;;17.32;100.00;98402.38;5022602;28;19952;-40
2023/03/19 03:40:56;;;;;;;;;;;;;;;18.02;100.00;98386.19;5021395;28;19970;-40
2023/03/19 03:43:22;;;;;;;;;;;;;;;17.55;100.00;98396.38;5017896;28;20210;-40
2023/03/19 03:45:47;;;;;;;;;;;;;;;17.44;100.00;98409.31;5021294;28;19925;-40
2023/03/19 03:48:13;;;;;;;;;;;;;;;16.97;100.00;98413.44;5020572;28;19959;-40
2023/03/19 03:50:38;;;;;;;;;;;;;;;16.40;100.00;98450.94;5021665;28;19921;-41
2023/03/19 03:53:03;;;;;;;;;;;;;;;16.13;100.00;98463.94;5021028;28;19951;-40
2023/03/19 03:55:29;;;;;;;;;;;;;;;16.10;100.00;98479.69;5021240;28;19928;-40
2023/03/19 03:57:54;;;;;;;;;;;;;;;15.98;100.00;98481.31;5020777;28;20333;-40
2023/03/19 04:00:20;;;;;;;;;;;;;;;16.35;100.00;98468.59;5020417;28;19924;-41
2023/03/19 04:02:45;;;;;;;;;;;;;;;15.94;100.00;98469.44;5024296;28;19946;-40
2023/03/19 04:05:10;;;;;;;;;;;;;;;16.59;100.00;98450.59;5018490;28;19928;-40
2023/03/19 04:07:36;;;;;;;;;;;;;;;17.51;100.00;98402.75;5019574;28;20381;-40
2023/03/19 04:10:01;;;;;;;;;;;;;;;16.54;100.00;98415.44;5019525;28;20569;-40
2023/03/19 04:12:27;;;;;;;;;;;;;;;16.27;100.00;98447.47;5020023;28;20110;-40
2023/03/19 04:14:52;;;;;;;;;;;;;;;16.42;100.00;98459.50;5020743;28;20143;-40
2023/03/19 04:17:17;;;;;;;;;;;;;;;16.69;100.00;98425.66;5022504;28;19928;-41
2023/03/19 04:19:42;;;;;;;;;;;;;;;16.46;100.00;98428.91;5020965;28;19956;-40
2023/03/19 04:22:08;;;;;;;;;;;;;;;16.19;100.00;98437.56;5019605;28;20021;-40
2023/03/19 04:24:33;;;;;;;;;;;;;;;15.97;100.00;98435.50;5021835;28;20607;-40
2023/03/19 04:26:58;;;;;;;;;;;;;;;15.64;100.00;98447.00;5022772;28;19947;-40
2023/03/19 04:29:23;;;;;;;;;;;;;;;16.35;100.00;98432.22;5020436;28;19917;-40
2023/03/19 04:31:49;;;;;;;;;;;;;;;15.02;100.00;98465.44;5021114;28;20164;-40
2023/03/19 04:34:15;;;;;;;;;;;;;;;15.59;100.00;98484.56;5019929;28;19928;-40
2023/03/19 04:36:40;;;;;;;;;;;;;;;15.72;100.00;98463.94;5020505;28;20445;-40
2023/03/19 04:39:05;;;;;;;;;;;;;;;15.22;100.00;98477.25;5019542;28;20273;-40
2023/03/19 04:41:31;;;;;;;;;;;;;;;16.01;100.00;98464.69;5021024;28;19924;-40
2023/03/19 04:43:56;;;;;;;;;;;;;;;16.11;100.00;98450.22;5018246;28;19921;-40
2023/03/19 04:46:21;;;;;;;;;;;;;;;15.81;100.00;98461.59;5021634;28;20373;-40
2023/03/19 04:48:47;;;;;;;;;;;;;;;15.83;100.00;98451.13;5021850;28;19963;-41
2023/03/19 04:51:12;;;;;;;;;;;;;;;16.14;100.00;98450.00;5019441;28;19947;-40
2023/03/19 04:53:38;;;;;;;;;;;;;;;14.90;100.00;98475.72;5018952;28;19925;-40
2023/03/19 04:56:04;;;;;;;;;;;;;;;15.42;100.00;98478.66;5020900;28;20238;-40
2023/03/19 04:58:29;;;;;;;;;;;;;;;15.57;100.00;98465.66;5019412;28;21444;-40
2023/03/19 05:00:54;;;;;;;;;;;;;;;16.07;100.00;98459.97;5020285;28;20306;-40
2023/03/19 05:03:20;;;;;;;;;;;;;;;15.56;100.00;98470.03;5018744;28;19964;-40
2023/03/19 05:05:46;;;;;;;;;;;;;;;15.74;100.00;98478.50;5018748;28;20036;-40
2023/03/19 05:08:12;;;;;;;;;;;;;;;15.69;100.00;98483.94;5020982;28;20470;-40
2023/03/19 05:10:38;;;;;;;;;;;;;;;15.13;100.00;98498.53;5019649;28;20448;-40
2023/03/19 05:13:03;;;;;;;;;;;;;;;15.57;100.00;98502.00;5017632;28;19921;-40
2023/03/19 05:15:28;;;;;;;;;;;;;;;15.51;100.00;98492.84;5019395;28;19978;-40
2023/03/19 05:17:53;;;;;;;;;;;;;;;15.86;100.00;98488.09;5020029;28;19928;-40
2023/03/19 05:20:20;;;;;;;;;;;;;;;15.41;100.00;98492.53;5020168;28;20371;-40
2023/03/19 05:22:48;;;;;;;;;;;;;;;15.43;100.00;98500.25;5018614;28;20007;-40
2023/03/19 05:25:13;;;;;;;;;;;;;;;15.26;100.00;98501.25;5019410;28;19928;-40
2023/03/19 05:27:38;;;;;;;;;;;;;;;15.72;100.00;98485.53;5020173;28;19929;-40
2023/03/19 05:30:04;;;;;;;;;;;;;;;15.98;100.00;98490.88;5018107;28;20366;-40
2023/03/19 05:32:30;;;;;;;;;;;;;;;14.55;100.00;98528.66;5018428;28;20177;-40
2023/03/19 05:34:55;;;;;;;;;;;;;;;14.38;100.00;98552.84;5019616;28;21794;-40
2023/03/19 05:37:20;;;;;;;;;;;;;;;15.63;100.00;98527.59;5019554;28;19960;-40
2023/03/19 05:39:46;;;;;;;;;;;;;;;16.64;100.00;98504.88;5020173;28;19975;-40
2023/03/19 05:42:11;;;;;;;;;;;;;;;16.55;100.00;98480.31;5019007;28;20004;-40
2023/03/19 05:44:36;;;;;;;;;;;;;;;16.51;100.00;98481.44;5015429;28;19916;-40
2023/03/19 05:47:02;;;;;;;;;;;;;;;15.25;100.00;98515.97;5018963;28;19974;-40
2023/03/19 05:49:27;;;;;;;;;;;;;;;15.57;100.00;98522.75;5018428;28;19924;-40
2023/03/19 05:51:52;;;;;;;;;;;;;;;15.47;100.00;98527.69;5020286;28;20352;-40
2023/03/19 05:54:18;;;;;;;;;;;;;;;15.90;100.00;98525.13;5018400;28;19921;-40
2023/03/19 05:56:43;;;;;;;;;;;;;;;16.29;100.00;98495.81;5021442;28;19928;-40
2023/03/19 05:59:08;;;;;;;;;;;;;;;16.06;100.00;98505.06;5023491;28;20011;-40
2023/03/19 06:01:34;;;;;;;;;;;;;;;16.48;100.00;98490.25;5023592;28;19999;-40
2023/03/19 06:03:59;;;;;;;;;;;;;;;16.56;100.00;98483.72;5022942;28;19920;-40
2023/03/19 06:06:25;;;;;;;;;;;;;;;17.29;100.00;98459.84;5023255;28;19925;-40
2023/03/19 06:08:51;;;;;;;;;;;;;;;17.10;100.00;98461.06;5022377;28;19925;-40
2023/03/19 06:11:16;;;;;;;;;;;;;;;16.71;100.00;98486.16;5023098;28;19932;-40
2023/03/19 06:13:42;;;;;;;;;;;;;;;17.24;100.00;98467.97;5022590;28;19921;-40
2023/03/19 06:16:08;;;;;;;;;;;;;;;17.14;100.00;98461.72;5023882;28;20381;-40
2023/03/19 06:18:33;;;;;;;;;;;;;;;17.18;100.00;98462.34;5021759;28;19944;-40
2023/03/19 06:20:58;;;;;;;;;;;;;;;17.08;100.00;98475.97;5022562;28;19943;-40
2023/03/19 06:23:23;;;;;;;;;;;;;;;17.43;100.00;98471.94;5020279;28;20261;-40
2023/03/19 06:25:49;;;;;;;;;;;;;;;17.37;100.00;98473.16;5021906;28;19924;-40
2023/03/19 06:28:14;;;;;;;;;;;;;;;17.62;100.00;98469.69;5024769;28;19923;-40
2023/03/19 06:30:39;;;;;;;;;;;;;;;17.54;100.00;98465.03;5021364;28;19925;-41
2023/03/19 06:33:05;;;;;;;;;;;;;;;17.71;100.00;98468.22;5022278;28;20823;-40
2023/03/19 06:35:31;;;;;;;;;;;;;;;16.44;100.00;98498.34;5022511;28;19916;-40
2023/03/19 06:37:56;;;;;;;;;;;;;;;16.57;100.00;98514.84;5021886;28;20559;-40
2023/03/19 06:40:21;;;;;;;;;;;;;;;17.20;100.00;98491.72;5020831;28;20040;-40
2023/03/19 06:42:46;;;;;;;;;;;;;;;16.92;100.00;98489.19;5020911;28;19978;-40
2023/03/19 06:45:15;;;;;;;;;;;;;;;15.46;100.00;98551.94;5020092;28;19939;-40
2023/03/19 06:47:40;;;;;;;;;;;;;;;15.51;100.00;98556.84;5022437;28;19924;-40
2023/03/19 06:50:06;;;;;;;;;;;;;;;15.68;100.00;98572.28;5022033;28;19916;-40
2023/03/19 06:52:31;;;;;;;;;;;;;;;15.17;100.00;98590.00;5023317;28;19923;-40
2023/03/19 06:54:56;;;;;;;;;;;;;;;15.19;100.00;98590.72;5022568;28;20312;-40
2023/03/19 06:57:21;;;;;;;;;;;;;;;14.97;100.00;98599.72;5019863;28;20630;-40
2023/03/19 06:59:47;;;;;;;;;;;;;;;15.33;100.00;98588.19;5022134;28;19925;-40
2023/03/19 07:02:12;;;;;;;;;;;;;;;15.70;100.00;98580.81;5019797;28;19940;-40
2023/03/19 07:04:37;;;;;;;;;;;;;;;15.41;100.00;98588.53;5022173;28;19965;-40
2023/03/19 07:07:04;;;;;;;;;;;;;;;15.47;100.00;98590.78;5020864;28;19932;-40
2023/03/19 07:09:29;;;;;;;;;;;;;;;15.41;100.00;98601.53;5021865;28;20011;-40
2023/03/19 07:11:55;;;;;;;;;;;;;;;15.63;100.00;98589.91;5022059;28;19925;-40
2023/03/19 07:14:20;;;;;;;;;;;;;;;15.77;100.00;98592.53;5020983;28;19931;-40
2023/03/19 07:16:47;;;;;;;;;;;;;;;15.48;100.00;98599.41;5021206;28;21315;-40
2023/03/19 07:19:12;;;;;;;;;;;;;;;15.60;100.00;98601.28;5021313;28;19917;-40
2023/03/19 07:21:37;;;;;;;;;;;;;;;15.27;100.00;98615.28;5021559;28;20222;-40
2023/03/19 07:24:03;;;;;;;;;;;;;;;15.23;100.00;98623.34;5019151;28;19925;-40
2023/03/19 07:26:28;;;;;;;;;;;;;;;15.40;100.00;98612.84;5019877;28;19928;-40
2023/03/19 07:28:53;;;;;;;;;;;;;;;15.70;100.00;98611.97;5020532;28;19927;-40
2023/03/19 07:31:18;;;;;;;;;;;;;;;15.61;100.00;98613.34;5022417;28;20140;-40
2023/03/19 07:33:44;;;;;;;;;;;;;;;16.21;100.00;98596.78;5019313;28;20801;-40
2023/03/19 07:36:09;;;;;;;;;;;;;;;16.29;100.00;98604.94;5020475;28;20490;-40
2023/03/19 07:38:34;;;;;;;;;;;;;;;16.39;100.00;98593.97;5021644;28;20880;-40
2023/03/19 07:40:59;;;;;;;;;;;;;;;16.35;100.00;98602.88;5020530;28;20301;-40
2023/03/19 07:43:25;;;;;;;;;;;;;;;16.54;100.00;98598.22;5017371;28;20320;-40
2023/03/19 07:45:50;;;;;;;;;;;;;;;16.09;100.00;98611.34;5021920;28;20357;-40
2023/03/19 07:48:16;;;;;;;;;;;;;;;15.72;100.00;98625.72;5021935;28;21190;-40
2023/03/19 07:50:41;;;;;;;;;;;;;;;15.72;100.00;98625.72;5019787;28;19921;-40
2023/03/19 07:53:06;;;;;;;;;;;;;;;16.31;100.00;98623.88;5020135;28;20405;-40
2023/03/19 07:55:32;;;;;;;;;;;;;;;16.86;100.00;98608.38;5020634;28;20385;-40
2023/03/19 07:57:57;;;;;;;;;;;;;;;16.56;100.00;98601.56;5020933;28;20389;-40
2023/03/19 08:00:22;;;;;;;;;;;;;;;16.62;100.00;98614.16;5021385;28;19921;-40
2023/03/19 08:02:47;;;;;;;;;;;;;;;16.36;100.00;98615.78;5021411;28;20389;-40
2023/03/19 08:05:13;;;;;;;;;;;;;;;16.93;100.00;98602.69;5020418;28;19928;-40
2023/03/19 08:07:38;;;;;;;;;;;;;;;16.76;100.00;98608.09;5021632;28;19988;-40
2023/03/19 08:10:04;;;;;;;;;;;;;;;17.12;100.00;98589.28;5020506;28;21992;-40
2023/03/19 08:12:30;;;;;;;;;;;;;;;16.37;100.00;98632.22;5019707;28;19999;-40
2023/03/19 08:14:55;;;;;;;;;;;;;;;15.91;100.00;98637.63;5019562;28;19943;-40
2023/03/19 08:17:21;;;;;;;;;;;;;;;16.55;100.00;98627.66;5021894;28;19967;-40
2023/03/19 08:19:46;;;;;;;;;;;;;;;16.79;100.00;98625.28;5019515;28;19968;-40
2023/03/19 08:22:11;;;;;;;;;;;;;;;17.48;100.00;98600.81;5021391;28;19921;-40
2023/03/19 08:24:37;;;;;;;;;;;;;;;17.34;100.00;98600.91;5018523;28;19920;-40
2023/03/19 08:27:02;;;;;;;;;;;;;;;17.44;100.00;98598.53;5020178;28;19972;-40
2023/03/19 08:29:28;;;;;;;;;;;;;;;17.79;100.00;98588.34;5020374;28;19990;-40
2023/03/19 08:31:53;;;;;;;;;;;;;;;17.25;100.00;98598.91;5020385;28;20298;-40
2023/03/19 08:34:19;;;;;;;;;;;;;;;17.37;100.00;98592.91;5021171;28;19956;-40
2023/03/19 08:36:45;;;;;;;;;;;;;;;17.79;100.00;98572.72;5021597;28;20419;-40
2023/03/19 08:39:10;;;;;;;;;;;;;;;17.47;100.00;98590.50;5019006;28;19952;-40
2023/03/19 08:41:35;;;;;;;;;;;;;;;18.37;100.00;98571.28;5020111;28;19921;-40
2023/03/19 08:44:01;;;;;;;;;;;;;;;18.36;100.00;98563.59;5016726;28;19921;-40
2023/03/19 08:46:26;;;;;;;;;;;;;;;18.45;100.00;98567.28;5020256;28;19934;-40
2023/03/19 08:48:52;;;;;;;;;;;;;;;18.63;100.00;98554.72;5020660;28;19921;-40
2023/03/19 08:51:17;;;;;;;;;;;;;;;18.10;100.00;98560.19;5019478;28;20012;-40
2023/03/19 08:53:42;;;;;;;;;;;;;;;18.58;100.00;98570.69;5020750;28;20250;-40
2023/03/19 08:56:07;;;;;;;;;;;;;;;18.50;100.00;98563.44;5019204;28;19952;-40
2023/03/19 08:58:32;;;;;;;;;;;;;;;18.04;100.00;98584.94;5020562;28;19921;-40
2023/03/19 09:01:07;;;;;;;;;;;;;;;18.49;100.00;98564.34;5018668;28;19930;-40
2023/03/19 09:03:32;;;;;;;;;;;;;;;18.44;100.00;98573.47;5018953;28;19924;-40
2023/03/19 09:05:59;;;;;;;;;;;;;;;18.94;100.00;98571.63;5020249;28;20309;-40
2023/03/19 09:08:24;;;;;;;;;;;;;;;18.30;100.00;98570.06;5020740;28;19921;-40
2023/03/19 09:10:50;;;;;;;;;;;;;;;19.03;100.00;98570.94;5019766;28;19963;-40
2023/03/19 09:13:15;;;;;;;;;;;;;;;19.41;100.00;98564.66;5019818;28;20039;-40
2023/03/19 09:15:40;;;;;;;;;;;;;;;19.22;100.00;98570.41;5019900;28;19927;-40
2023/03/19 09:18:05;;;;;;;;;;;;;;;19.33;100.00;98567.00;5020804;28;19924;-40
2023/03/19 09:20:30;;;;;;;;;;;;;;;19.09;100.00;98574.88;5019189;28;20045;-40
2023/03/19 09:22:56;;;;;;;;;;;;;;;17.90;100.00;98598.06;5018877;28;19920;-40
2023/03/19 09:25:21;;;;;;;;;;;;;;;19.04;100.00;98588.25;5019708;28;19925;-40
2023/03/19 09:27:46;;;;;;;;;;;;;;;19.81;100.00;98562.47;5019938;28;20036;-40
2023/03/19 09:30:12;;;;;;;;;;;;;;;19.96;100.00;98550.00;5018915;28;21298;-41
2023/03/19 09:32:37;;;;;;;;;;;;;;;20.21;100.00;98548.09;5019971;28;20408;-40
2023/03/19 09:35:03;;;;;;;;;;;;;;;19.91;100.00;98557.38;5020649;28;19920;-40
2023/03/19 09:37:28;;;;;;;;;;;;;;;19.79;100.00;98558.31;5018363;28;19917;-41
2023/03/19 09:39:53;;;;;;;;;;;;;;;19.82;100.00;98568.53;5020117;28;20002;-40
2023/03/19 09:42:24;;;;;;;;;;;;;;;19.76;100.00;98564.59;5018694;28;19925;-40
2023/03/19 09:44:50;;;;;;;;;;;;;;;18.52;100.00;98607.63;5014946;28;19951;-41
2023/03/19 09:47:32;;;;;;;;;;;;;;;19.29;100.00;98592.50;5019365;28;19925;-41
2023/03/19 09:50:02;;;;;;;;;;;;;;;19.40;100.00;98576.03;5018879;28;20305;-41
2023/03/19 09:52:48;;;;;;;;;;;;;;;19.55;100.00;98579.28;5016961;28;20419;-40
2023/03/19 09:55:26;;;;;;;;;;;;;;;17.31;100.00;98655.75;5016785;28;19961;-40
2023/03/19 09:57:52;;;;;;;;;;;;;;;17.40;100.00;98670.78;5017709;28;19928;-40
2023/03/19 10:00:24;;;;;;;;;;;;;;;16.98;100.00;98672.63;5017238;28;19928;-40
2023/03/19 10:02:59;;;;;;;;;;;;;;;17.78;100.00;98670.03;5019512;28;19940;-40
2023/03/19 10:05:35;;;;;;;;;;;;;;;19.54;100.00;98617.59;5021259;28;20153;-41
2023/03/19 10:08:03;;;;;;;;;;;;;;;17.60;100.00;98650.41;5018009;28;19933;-40
2023/03/19 10:10:35;;;;;;;;;;;;;;;17.44;100.00;98676.63;5016592;28;19936;-40
2023/03/19 10:13:09;;;;;;;;;;;;;;;18.86;100.00;98641.78;5017895;28;19925;-40
2023/03/19 10:15:35;;;;;;;;;;;;;;;19.64;100.00;98634.25;5017474;28;19978;-41
2023/03/19 10:18:16;;;;;;;;;;;;;;;21.40;100.00;98558.50;5018048;28;19921;-40
2023/03/19 10:20:52;;;;;;;;;;;;;;;21.45;100.00;98529.31;5018085;28;20039;-41
2023/03/19 10:23:26;;;;;;;;;;;;;;;21.59;100.00;98544.69;5017014;28;19948;-40
2023/03/19 10:25:54;;;;;;;;;;;;;;;19.49;100.00;98585.78;5019420;28;20450;-41
2023/03/19 10:28:19;;;;;;;;;;;;;;;19.68;100.00;98587.00;5017047;28;19920;-41
2023/03/19 10:30:46;;;;;;;;;;;;;;;17.86;100.00;98631.31;5017516;28;20404;-41
2023/03/19 10:33:11;;;;;;;;;;;;;;;20.66;100.00;98574.16;5021584;28;20007;-41
2023/03/19 10:35:38;;;;;;;;;;;;;;;21.38;100.00;98549.91;5017312;28;19924;-40
2023/03/19 10:38:17;;;;;;;;;;;;;;;21.70;100.00;98539.34;5016868;28;19928;-41
2023/03/19 10:41:01;;;;;;;;;;;;;;;20.92;100.00;98564.22;5018496;28;20575;-41
2023/03/19 10:43:26;;;;;;;;;;;;;;;19.61;100.00;98573.56;5021119;28;20052;-41
2023/03/19 10:45:53;;;;;;;;;;;;;;;20.70;100.00;98553.81;5022628;28;20357;-41
2023/03/19 10:48:18;;;;;;;;;;;;;;;21.49;100.00;98567.41;5023054;28;19931;-41
2023/03/19 10:50:49;;;;;;;;;;;;;;;21.65;100.00;98554.66;5025435;28;19917;-41
2023/03/19 10:53:14;;;;;;;;;;;;;;;20.44;100.00;98586.31;5025765;28;19962;-41
2023/03/19 10:55:56;;;;;;;;;;;;;;;21.30;100.00;98555.81;5029699;28;19955;-41
2023/03/19 10:58:24;;;;;;;;;;;;;;;21.98;100.00;98539.59;5025575;28;20598;-41
2023/03/19 11:00:55;;;;;;;;;;;;;;;21.81;100.00;98535.00;5023119;28;20020;-41
2023/03/19 11:03:31;;;;;;;;;;;;;;;22.19;100.00;98517.72;5022995;28;19921;-40
2023/03/19 11:06:03;;;;;;;;;;;;;;;21.74;100.00;98539.13;5023525;28;19946;-40
2023/03/19 11:08:29;;;;;;;;;;;;;;;21.65;100.00;98552.03;5024270;28;19917;-41
2023/03/19 11:10:54;;;;;;;;;;;;;;;20.51;100.00;98570.13;5024523;28;19968;-40
2023/03/19 11:13:23;;;;;;;;;;;;;;;18.43;100.00;98634.34;5021238;28;19921;-41
2023/03/19 11:15:48;;;;;;;;;;;;;;;20.21;100.00;98605.59;5022568;28;19983;-40
2023/03/19 11:18:20;;;;;;;;;;;;;;;20.60;100.00;98558.97;5024606;28;19921;-40
2023/03/19 11:21:09;;;;;;;;;;;;;;;21.80;100.00;98541.19;5023566;28;19955;-40
2023/03/19 11:23:38;;;;;;;;;;;;;;;22.19;100.00;98529.06;5018157;28;19924;-41
2023/03/19 11:26:04;;;;;;;;;;;;;;;20.79;100.00;98553.06;5023674;28;19924;-40
2023/03/19 11:28:32;;;;;;;;;;;;;;;21.91;100.00;98551.59;5025277;28;19966;-40
2023/03/19 11:30:59;;;;;;;;;;;;;;;22.82;100.00;98515.59;5023552;28;19917;-40
2023/03/19 11:33:25;;;;;;;;;;;;;;;21.95;100.00;98545.13;5021890;28;19983;-40
2023/03/19 11:35:54;;;;;;;;;;;;;;;22.09;100.00;98531.63;5023276;28;20816;-40
2023/03/19 11:38:25;;;;;;;;;;;;;;;22.70;100.00;98548.22;5024308;28;19927;-40
2023/03/19 11:41:12;;;;;;;;;;;;;;;22.86;100.00;98530.13;5023357;28;20581;-41
2023/03/19 11:43:44;;;;;;;;;;;;;;;22.24;100.00;98544.44;5019076;28;19928;-41
2023/03/19 11:46:28;;;;;;;;;;;;;;;22.57;100.00;98526.66;5023378;28;19928;-41
2023/03/19 11:49:02;;;;;;;;;;;;;;;22.80;100.00;98522.78;5023703;28;19983;-41
2023/03/19 11:51:48;;;;;;;;;;;;;;;22.26;100.00;98524.97;5010739;28;21167;-40
2023/03/19 11:54:13;;;;;;;;;;;;;;;21.85;100.00;98532.00;5021786;28;19959;-40
2023/03/19 11:56:41;;;;;;;;;;;;;;;22.51;100.00;98518.38;5023491;28;20003;-40
2023/03/19 11:59:07;;;;;;;;;;;;;;;22.46;100.00;98531.06;5023009;28;20002;-40
2023/03/19 12:01:35;;;;;;;;;;;;;;;22.89;100.00;98524.59;5024921;28;20531;-40
2023/03/19 12:04:22;;;;;;;;;;;;;;;22.86;100.00;98527.50;5021745;28;19921;-41
2023/03/19 12:06:47;;;;;;;;;;;;;;;22.61;100.00;98531.50;5021909;28;19932;-41
2023/03/19 12:09:17;;;;;;;;;;;;;;;22.05;100.00;98538.09;5022953;28;19931;-41
2023/03/19 12:11:53;;;;;;;;;;;;;;;23.15;100.00;98521.44;5021910;28;19967;-40
2023/03/19 12:14:35;;;;;;;;;;;;;;;22.97;99.33;98506.34;5020169;28;20108;-41
2023/03/19 12:17:03;;;;;;;;;;;;;;;22.14;100.00;98534.69;5021499;28;19924;-40
2023/03/19 12:19:36;;;;;;;;;;;;;;;22.27;100.00;98538.91;5022072;28;19920;-40
2023/03/19 12:22:08;;;;;;;;;;;;;;;22.92;100.00;98518.22;5020639;28;19921;-40
2023/03/19 12:24:42;;;;;;;;;;;;;;;21.58;98.81;98514.22;5019111;28;20385;-41
2023/03/19 12:27:14;;;;;;;;;;;;;;;22.46;100.00;98530.22;5021726;28;19924;-41
2023/03/19 12:29:58;;;;;;;;;;;;;;;21.46;100.00;98562.38;5020970;28;19920;-41
2023/03/19 12:32:56;;;;;;;;;;;;;;;20.86;100.00;98596.94;5019198;28;19917;-41
2023/03/19 12:35:23;;;;;;;;;;;;;;;21.70;100.00;98555.09;5004979;28;19933;-41